Time;durP1;ratioP1;P1;durP2;ratioP2;P2;SDS_P1;SDS_P2;PMS_P1;PMS_P2;Temp;Humidity;BMP_temperature;BMP_pressure;BME280_temperature;BME280_humidity;BME280_pressure;Samples;Min_cycle;Max_cycle;Signal;HPM_P1;HPM_P2
2023/05/19 00:01:36;;;;;;;5.20;3.90;;;14.50;99.90;;;;;;5049531;28;20458;-72
2023/05/19 00:04:04;;;;;;;6.55;4.10;;;14.50;99.90;;;;;;5049713;28;20044;-72
2023/05/19 00:06:31;;;;;;;5.50;4.00;;;14.60;99.90;;;;;;5049516;28;20037;-72
2023/05/19 00:09:00;;;;;;;4.20;3.80;;;14.60;99.90;;;;;;5050618;28;20029;-71
2023/05/19 00:11:27;;;;;;;8.02;4.70;;;14.60;99.90;;;;;;5049567;28;20498;-72
2023/05/19 00:13:54;;;;;;;5.30;4.00;;;14.60;99.90;;;;;;5050046;28;20419;-72
2023/05/19 00:16:24;;;;;;;4.97;4.28;;;14.60;99.90;;;;;;5049687;28;20146;-72
2023/05/19 00:18:52;;;;;;;8.30;6.20;;;14.60;99.90;;;;;;5049877;28;20043;-72
2023/05/19 00:21:18;;;;;;;7.13;6.43;;;14.70;99.90;;;;;;5049397;28;20029;-74
2023/05/19 00:23:44;;;;;;;6.85;5.60;;;14.70;99.90;;;;;;5049921;28;20446;-72
2023/05/19 00:26:10;;;;;;;7.20;5.97;;;14.70;99.90;;;;;;5049450;28;20119;-70
2023/05/19 00:28:36;;;;;;;7.50;6.18;;;14.70;99.90;;;;;;5049285;28;20033;-72
2023/05/19 00:31:03;;;;;;;7.20;5.43;;;14.70;99.90;;;;;;5049784;28;20051;-72
2023/05/19 00:33:29;;;;;;;8.05;5.28;;;14.60;99.90;;;;;;5050536;28;20378;-72
2023/05/19 00:35:55;;;;;;;7.32;5.30;;;14.70;99.90;;;;;;5053353;28;20035;-70
2023/05/19 00:38:20;;;;;;;8.00;4.80;;;14.70;99.90;;;;;;5052681;28;20414;-71
2023/05/19 00:40:46;;;;;;;7.47;4.70;;;14.60;99.90;;;;;;5053504;28;20035;-71
2023/05/19 00:43:12;;;;;;;8.55;4.38;;;14.70;99.90;;;;;;5052802;28;20052;-72
2023/05/19 00:45:38;;;;;;;6.38;4.53;;;14.60;99.90;;;;;;5052748;28;20033;-71
2023/05/19 00:48:03;;;;;;;8.05;4.15;;;14.60;99.90;;;;;;5053283;28;20029;-71
2023/05/19 00:50:29;;;;;;;7.78;4.20;;;14.60;99.90;;;;;;5052927;28;20165;-70
2023/05/19 00:52:55;;;;;;;10.40;4.68;;;14.50;99.90;;;;;;5053163;28;20119;-72
2023/05/19 00:55:28;;;;;;;6.57;4.25;;;14.40;99.90;;;;;;5052602;28;20021;-72
2023/05/19 00:57:55;;;;;;;9.38;4.45;;;14.40;99.90;;;;;;5052947;28;20159;-71
2023/05/19 01:00:21;;;;;;;8.80;4.60;;;14.40;99.90;;;;;;5052518;28;20040;-73
2023/05/19 01:02:49;;;;;;;8.43;3.72;;;14.30;99.90;;;;;;5052973;28;20025;-72
2023/05/19 01:05:15;;;;;;;9.15;4.47;;;14.30;99.90;;;;;;5052871;28;20029;-72
2023/05/19 01:07:41;;;;;;;8.82;4.40;;;14.30;99.90;;;;;;5052560;28;20102;-72
2023/05/19 01:10:08;;;;;;;8.43;4.18;;;14.30;99.90;;;;;;5052689;28;20029;-72
2023/05/19 01:12:34;;;;;;;17.88;4.53;;;14.30;99.90;;;;;;5051694;28;20396;-72
2023/05/19 01:15:00;;;;;;;17.33;5.22;;;14.20;99.90;;;;;;5052722;28;20060;-71
2023/05/19 01:17:36;;;;;;;17.48;5.20;;;14.20;99.90;;;;;;5051834;28;20032;-72
2023/05/19 01:20:12;;;;;;;14.85;4.40;;;14.00;99.90;;;;;;5052813;28;20060;-71
2023/05/19 01:23:09;;;;;;;16.80;5.20;;;14.00;99.90;;;;;;5051834;28;20035;-71
2023/05/19 01:26:10;;;;;;;14.50;5.00;;;13.80;99.90;;;;;;5049888;28;20049;-72
2023/05/19 01:28:48;;;;;;;19.52;5.53;;;13.90;99.90;;;;;;5051401;28;20040;-72
2023/05/19 01:31:15;;;;;;;14.43;5.38;;;13.80;99.90;;;;;;5052633;28;20072;-72
2023/05/19 01:33:43;;;;;;;18.13;5.07;;;13.70;99.90;;;;;;5051515;28;20032;-72
2023/05/19 01:36:11;;;;;;;18.23;5.10;;;13.70;99.90;;;;;;5050519;28;20029;-72
2023/05/19 01:38:38;;;;;;;16.40;4.72;;;13.80;99.90;;;;;;5051619;28;20090;-72
2023/05/19 01:41:06;;;;;;;18.92;5.15;;;13.80;99.90;;;;;;5051898;28;20021;-72
2023/05/19 01:43:33;;;;;;;15.32;5.25;;;13.80;99.90;;;;;;5050763;28;20043;-72
2023/05/19 01:46:00;;;;;;;19.45;5.32;;;13.80;99.90;;;;;;5051674;28;20029;-72
2023/05/19 01:48:26;;;;;;;24.65;5.38;;;13.80;99.90;;;;;;5051291;28;20060;-73
2023/05/19 01:50:52;;;;;;;16.95;4.78;;;13.70;99.90;;;;;;5052359;28;20040;-73
2023/05/19 01:53:18;;;;;;;19.80;5.43;;;13.70;99.90;;;;;;5052047;28;20040;-72
2023/05/19 01:55:49;;;;;;;19.70;5.38;;;13.70;99.90;;;;;;5051646;28;20029;-73
2023/05/19 01:58:36;;;;;;;26.75;5.68;;;13.70;99.90;;;;;;5052172;28;20025;-73
2023/05/19 02:01:27;;;;;;;30.65;6.53;;;13.70;99.90;;;;;;5052155;28;20029;-72
2023/05/19 02:04:13;;;;;;;25.50;6.03;;;13.60;99.90;;;;;;5052081;28;20043;-72
2023/05/19 02:06:56;;;;;;;25.15;6.78;;;13.50;99.90;;;;;;5051454;28;20128;-73
2023/05/19 02:09:46;;;;;;;19.42;6.28;;;13.50;99.90;;;;;;5051522;28;20596;-75
2023/05/19 02:12:24;;;;;;;25.33;5.95;;;13.50;99.90;;;;;;5043994;28;20041;-72
2023/05/19 02:15:10;;;;;;;19.63;5.95;;;13.50;99.90;;;;;;5052107;28;20044;-73
2023/05/19 02:17:41;;;;;;;29.95;6.40;;;13.50;99.90;;;;;;5051470;28;20029;-72
2023/05/19 02:20:10;;;;;;;26.98;7.22;;;13.40;99.90;;;;;;5051798;28;20025;-72
2023/05/19 02:22:36;;;;;;;27.88;6.68;;;13.40;99.90;;;;;;5051646;28;20093;-73
2023/05/19 02:25:02;;;;;;;31.98;7.30;;;13.40;99.90;;;;;;5051697;28;20147;-72
2023/05/19 02:27:28;;;;;;;29.42;7.07;;;13.30;99.90;;;;;;5050525;28;20478;-73
2023/05/19 02:29:54;;;;;;;21.38;6.10;;;13.30;99.90;;;;;;5051290;28;20443;-72
2023/05/19 02:32:20;;;;;;;21.95;6.53;;;13.40;99.90;;;;;;5051373;28;20025;-72
2023/05/19 02:34:46;;;;;;;27.13;7.07;;;13.40;99.90;;;;;;5050622;28;20035;-73
2023/05/19 02:37:13;;;;;;;32.08;7.72;;;13.40;99.90;;;;;;5051713;28;20471;-72
2023/05/19 02:39:40;;;;;;;34.10;7.38;;;13.30;99.90;;;;;;5050736;28;20435;-73
2023/05/19 02:42:06;;;;;;;29.67;6.80;;;13.20;99.90;;;;;;5051309;28;20025;-73
2023/05/19 02:44:32;;;;;;;27.45;6.55;;;13.20;99.90;;;;;;5050914;28;20541;-73
2023/05/19 02:46:57;;;;;;;23.33;6.50;;;13.10;99.90;;;;;;5051099;28;20121;-72
2023/05/19 02:49:23;;;;;;;28.20;7.32;;;13.10;99.90;;;;;;5051067;28;20024;-72
2023/05/19 02:51:49;;;;;;;29.45;7.40;;;13.00;99.90;;;;;;5050298;28;20417;-72
2023/05/19 02:54:14;;;;;;;33.42;6.85;;;12.90;99.90;;;;;;5051264;28;20036;-72
2023/05/19 02:56:40;;;;;;;30.63;7.43;;;12.90;99.90;;;;;;5049806;28;20052;-72
2023/05/19 02:59:06;;;;;;;29.50;7.50;;;12.80;99.90;;;;;;5050405;28;20067;-72
2023/05/19 03:01:32;;;;;;;28.90;7.13;;;12.80;99.90;;;;;;5050170;28;20105;-71
2023/05/19 03:03:58;;;;;;;26.75;6.53;;;12.70;99.90;;;;;;5050347;28;20555;-72
2023/05/19 03:06:23;;;;;;;31.33;7.18;;;12.60;99.90;;;;;;5050207;28;20045;-71
2023/05/19 03:08:50;;;;;;;21.42;6.93;;;12.60;99.90;;;;;;5050280;28;20136;-72
2023/05/19 03:11:16;;;;;;;32.08;7.05;;;12.60;99.90;;;;;;5050488;28;20089;-72
2023/05/19 03:13:42;;;;;;;31.65;7.78;;;12.60;99.90;;;;;;5049882;28;20029;-72
2023/05/19 03:16:07;;;;;;;28.50;7.25;;;12.50;99.90;;;;;;5050754;28;20359;-72
2023/05/19 03:18:34;;;;;;;23.08;7.55;;;12.50;99.90;;;;;;5050276;28;20025;-72
2023/05/19 03:20:59;;;;;;;29.73;6.95;;;12.50;99.90;;;;;;5050565;28;20028;-72
2023/05/19 03:23:26;;;;;;;28.00;6.93;;;12.40;99.90;;;;;;5050725;28;20025;-72
2023/05/19 03:25:55;;;;;;;32.05;7.30;;;12.40;99.90;;;;;;5050107;28;20056;-72
2023/05/19 03:28:22;;;;;;;27.27;7.32;;;12.30;99.90;;;;;;5050606;28;20459;-73
2023/05/19 03:30:49;;;;;;;28.55;7.85;;;12.30;99.90;;;;;;5049651;28;20602;-72
2023/05/19 03:33:15;;;;;;;26.40;7.07;;;12.20;99.90;;;;;;5050607;28;20021;-72
2023/05/19 03:35:43;;;;;;;25.67;6.95;;;12.10;99.90;;;;;;5049916;28;20029;-72
2023/05/19 03:38:08;;;;;;;27.02;6.60;;;12.10;99.90;;;;;;5050461;28;20081;-72
2023/05/19 03:40:34;;;;;;;28.98;7.22;;;12.10;99.90;;;;;;5049513;28;20448;-73
2023/05/19 03:43:00;;;;;;;28.65;6.63;;;12.00;99.90;;;;;;5050321;28;20040;-72
2023/05/19 03:45:26;;;;;;;29.35;7.55;;;12.00;99.90;;;;;;5050232;28;20186;-72
2023/05/19 03:47:52;;;;;;;30.42;7.13;;;11.90;99.90;;;;;;5049977;28;20308;-72
2023/05/19 03:50:18;;;;;;;25.40;7.05;;;11.90;99.90;;;;;;5050035;28;20029;-72
2023/05/19 03:52:45;;;;;;;32.42;7.03;;;11.80;99.90;;;;;;5049100;28;20099;-72
2023/05/19 03:55:13;;;;;;;27.80;8.32;;;11.80;99.90;;;;;;5050217;28;20040;-72
2023/05/19 03:57:40;;;;;;;29.48;7.18;;;11.80;99.90;;;;;;5049537;28;20034;-72
2023/05/19 04:00:07;;;;;;;31.38;7.25;;;11.80;99.90;;;;;;5050118;28;20059;-72
2023/05/19 04:02:32;;;;;;;22.27;6.38;;;11.80;99.90;;;;;;5049048;28;20040;-73
2023/05/19 04:04:58;;;;;;;33.35;7.95;;;11.80;99.90;;;;;;5049787;28;20021;-72
2023/05/19 04:07:24;;;;;;;30.70;7.72;;;11.80;99.90;;;;;;5049685;28;20037;-73
2023/05/19 04:09:50;;;;;;;30.08;6.82;;;11.70;99.90;;;;;;5053925;28;20039;-72
2023/05/19 04:12:16;;;;;;;30.38;8.10;;;11.70;99.90;;;;;;5053823;28;20033;-72
2023/05/19 04:14:41;;;;;;;29.45;7.28;;;11.60;99.90;;;;;;5052162;28;20028;-72
2023/05/19 04:17:07;;;;;;;26.95;6.40;;;11.60;99.90;;;;;;5053751;28;20458;-73
2023/05/19 04:19:33;;;;;;;26.40;6.97;;;11.50;99.90;;;;;;5053063;28;20063;-74
2023/05/19 04:21:59;;;;;;;32.00;7.40;;;11.50;99.90;;;;;;5053648;28;20078;-72
2023/05/19 04:24:25;;;;;;;26.75;7.07;;;11.40;99.90;;;;;;5053723;28;20033;-72
2023/05/19 04:26:51;;;;;;;28.95;8.07;;;11.40;99.90;;;;;;5052385;28;20056;-72
2023/05/19 04:29:16;;;;;;;32.65;7.38;;;11.40;99.90;;;;;;5054156;28;20489;-72
2023/05/19 04:31:43;;;;;;;29.85;6.88;;;11.30;99.90;;;;;;5052991;28;20029;-72
2023/05/19 04:34:09;;;;;;;26.42;7.82;;;11.30;99.90;;;;;;5052450;28;20419;-72
2023/05/19 04:36:36;;;;;;;29.88;7.38;;;11.30;99.90;;;;;;5052983;28;20040;-73
2023/05/19 04:39:06;;;;;;;28.10;8.32;;;11.40;99.90;;;;;;5053809;28;20021;-72
2023/05/19 04:41:35;;;;;;;29.10;7.72;;;11.30;99.90;;;;;;5053373;28;20033;-72
2023/05/19 04:44:01;;;;;;;32.10;7.43;;;11.30;99.90;;;;;;5053305;28;20406;-72
2023/05/19 04:46:28;;;;;;;29.65;7.22;;;11.20;99.90;;;;;;5052745;28;20043;-71
2023/05/19 04:48:55;;;;;;;28.00;7.35;;;11.20;99.90;;;;;;5052693;28;20046;-72
2023/05/19 04:51:27;;;;;;;28.98;7.35;;;11.20;99.90;;;;;;5053438;28;20078;-72
2023/05/19 04:53:54;;;;;;;23.25;7.22;;;11.20;99.90;;;;;;5052623;28;20029;-72
2023/05/19 04:56:20;;;;;;;32.25;6.95;;;11.20;99.90;;;;;;5052720;28;20037;-72
2023/05/19 04:58:46;;;;;;;25.17;7.40;;;11.20;99.90;;;;;;5052029;28;20363;-72
2023/05/19 05:01:15;;;;;;;24.17;7.22;;;11.20;99.90;;;;;;5053042;28;20100;-72
2023/05/19 05:03:41;;;;;;;28.58;7.47;;;11.20;99.90;;;;;;5052299;28;20320;-72
2023/05/19 05:06:07;;;;;;;33.00;7.60;;;11.30;99.90;;;;;;5052682;28;20362;-72
2023/05/19 05:08:33;;;;;;;28.30;7.60;;;11.30;99.90;;;;;;5052786;28;20100;-72
2023/05/19 05:10:59;;;;;;;28.42;7.18;;;11.30;99.90;;;;;;5052039;28;20107;-72
2023/05/19 05:13:25;;;;;;;37.22;7.55;;;11.30;99.90;;;;;;5052647;28;20021;-72
2023/05/19 05:15:51;;;;;;;24.30;6.85;;;11.30;99.90;;;;;;5051989;28;20026;-72
2023/05/19 05:18:17;;;;;;;27.25;8.50;;;11.40;99.90;;;;;;5052513;28;20454;-72
2023/05/19 05:20:45;;;;;;;38.60;7.90;;;11.40;99.90;;;;;;5051835;28;20493;-73
2023/05/19 05:23:14;;;;;;;27.30;7.18;;;11.40;99.90;;;;;;5052200;28;20052;-71
2023/05/19 05:25:43;;;;;;;32.75;8.20;;;11.40;99.90;;;;;;5050326;28;20045;-73
2023/05/19 05:28:09;;;;;;;31.95;8.57;;;11.40;99.90;;;;;;5052319;28;20025;-72
2023/05/19 05:30:35;;;;;;;32.60;6.68;;;11.50;99.90;;;;;;5051880;28;20105;-73
2023/05/19 05:33:01;;;;;;;36.15;7.60;;;11.60;99.90;;;;;;5051666;28;20028;-72
2023/05/19 05:35:27;;;;;;;27.38;7.70;;;11.70;99.90;;;;;;5052203;28;20017;-72
2023/05/19 05:37:53;;;;;;;33.03;7.72;;;11.70;99.90;;;;;;5051287;28;20047;-72
2023/05/19 05:40:19;;;;;;;26.15;7.28;;;11.70;99.90;;;;;;5052388;28;20025;-72
2023/05/19 05:42:45;;;;;;;31.17;7.55;;;11.80;99.90;;;;;;5051116;28;20028;-72
2023/05/19 05:45:12;;;;;;;27.60;7.78;;;11.90;99.90;;;;;;5052281;28;20025;-71
2023/05/19 05:47:40;;;;;;;34.67;8.70;;;11.90;99.90;;;;;;5051635;28;20094;-75
2023/05/19 05:50:07;;;;;;;32.80;7.88;;;11.90;99.90;;;;;;5051998;28;20436;-72
2023/05/19 05:52:36;;;;;;;37.15;7.65;;;11.90;99.90;;;;;;5052095;28;20132;-73
2023/05/19 05:55:02;;;;;;;28.95;8.00;;;12.00;99.90;;;;;;5051134;28;20065;-73
2023/05/19 05:57:29;;;;;;;27.42;7.95;;;12.00;99.90;;;;;;5051724;28;20470;-72
2023/05/19 05:59:55;;;;;;;28.75;7.60;;;12.00;99.90;;;;;;5051517;28;20061;-73
2023/05/19 06:02:21;;;;;;;28.65;7.38;;;12.00;99.90;;;;;;5051964;28;20024;-72
2023/05/19 06:04:47;;;;;;;34.35;7.97;;;12.10;99.90;;;;;;5051047;28;20025;-72
2023/05/19 06:07:13;;;;;;;29.95;7.70;;;12.10;99.90;;;;;;5051420;28;20033;-73
2023/05/19 06:09:38;;;;;;;34.40;8.73;;;12.20;99.90;;;;;;5051363;28;20032;-75
2023/05/19 06:12:05;;;;;;;28.25;8.38;;;12.30;99.90;;;;;;5049773;28;20104;-72
2023/05/19 06:14:31;;;;;;;28.35;7.63;;;12.30;99.90;;;;;;5051257;28;20493;-72
2023/05/19 06:16:57;;;;;;;30.92;8.02;;;12.20;99.90;;;;;;5050791;28;20029;-72
2023/05/19 06:19:24;;;;;;;30.65;8.70;;;12.30;99.90;;;;;;5051752;28;20025;-73
2023/05/19 06:21:50;;;;;;;28.58;7.63;;;12.30;99.90;;;;;;5050835;28;20466;-73
2023/05/19 06:24:16;;;;;;;29.42;7.68;;;12.40;99.90;;;;;;5050761;28;20028;-72
2023/05/19 06:26:41;;;;;;;28.83;7.85;;;12.50;99.90;;;;;;5050051;28;20052;-73
2023/05/19 06:29:07;;;;;;;32.03;7.82;;;12.60;99.90;;;;;;5050917;28;20094;-73
2023/05/19 06:31:33;;;;;;;27.40;7.40;;;12.70;99.90;;;;;;5050250;28;20032;-72
2023/05/19 06:33:59;;;;;;;33.05;7.63;;;12.80;99.90;;;;;;5050075;28;20879;-72
2023/05/19 06:36:24;;;;;;;27.98;6.80;;;12.70;99.90;;;;;;5050767;28;20025;-72
2023/05/19 06:38:51;;;;;;;27.45;7.13;;;12.70;99.90;;;;;;5050289;28;20044;-72
2023/05/19 06:41:16;;;;;;;28.95;6.88;;;12.80;99.90;;;;;;5051069;28;20029;-72
2023/05/19 06:43:42;;;;;;;46.28;8.40;;;12.80;99.90;;;;;;5050296;28;20017;-75
2023/05/19 06:46:08;;;;;;;28.33;7.85;;;12.80;99.90;;;;;;5051284;28;20025;-73
2023/05/19 06:48:34;;;;;;;31.80;8.35;;;12.80;99.90;;;;;;5050769;28;20032;-72
2023/05/19 06:51:00;;;;;;;34.28;8.35;;;12.90;99.90;;;;;;5050159;28;20395;-73
2023/05/19 06:53:25;;;;;;;29.50;7.47;;;13.00;99.90;;;;;;5050722;28;20029;-72
2023/05/19 06:55:51;;;;;;;30.05;7.35;;;12.90;99.90;;;;;;5049823;28;20432;-72
2023/05/19 06:58:17;;;;;;;32.72;8.60;;;12.90;99.90;;;;;;5049207;28;20346;-73
2023/05/19 07:00:43;;;;;;;28.70;7.72;;;12.80;99.90;;;;;;5049846;28;20033;-74
2023/05/19 07:03:09;;;;;;;35.58;8.45;;;12.90;99.90;;;;;;5050364;28;20025;-72
2023/05/19 07:05:35;;;;;;;29.17;7.32;;;12.90;99.90;;;;;;5050270;28;20036;-72
2023/05/19 07:08:01;;;;;;;34.33;8.07;;;12.90;99.90;;;;;;5049895;28;20091;-72
2023/05/19 07:10:27;;;;;;;35.13;8.40;;;12.90;99.90;;;;;;5049892;28;20462;-72
2023/05/19 07:12:52;;;;;;;33.58;8.55;;;12.80;99.90;;;;;;5049877;28;20139;-72
2023/05/19 07:15:18;;;;;;;24.05;7.45;;;12.90;99.90;;;;;;5048484;28;20125;-72
2023/05/19 07:17:44;;;;;;;32.53;7.40;;;13.00;99.90;;;;;;5049226;28;20082;-73
2023/05/19 07:20:10;;;;;;;28.67;8.07;;;13.00;99.90;;;;;;5049638;28;20410;-71
2023/05/19 07:22:38;;;;;;;33.60;7.60;;;13.00;99.90;;;;;;5049564;28;20052;-72
2023/05/19 07:25:05;;;;;;;29.98;7.45;;;13.10;99.90;;;;;;5047312;28;20607;-71
2023/05/19 07:27:30;;;;;;;31.60;9.27;;;13.20;99.90;;;;;;5048407;28;20059;-71
2023/05/19 07:29:57;;;;;;;28.10;7.25;;;13.10;99.90;;;;;;5049114;28;20490;-72
2023/05/19 07:32:24;;;;;;;31.98;7.60;;;13.20;99.90;;;;;;5048499;28;20120;-72
2023/05/19 07:34:49;;;;;;;31.27;6.63;;;13.20;99.90;;;;;;5048665;28;20032;-72
2023/05/19 07:37:15;;;;;;;37.03;8.27;;;13.30;99.90;;;;;;5049812;28;20033;-72
2023/05/19 07:39:41;;;;;;;33.55;8.00;;;13.30;99.90;;;;;;5049196;28;20082;-71
2023/05/19 07:42:07;;;;;;;25.45;7.07;;;13.20;99.90;;;;;;5050202;28;20032;-72
2023/05/19 07:44:33;;;;;;;31.77;7.28;;;13.30;99.90;;;;;;5053436;28;20036;-71
2023/05/19 07:46:59;;;;;;;29.60;7.72;;;13.30;99.90;;;;;;5052593;28;20120;-72
2023/05/19 07:49:25;;;;;;;30.92;8.07;;;13.40;99.90;;;;;;5053536;28;20021;-73
2023/05/19 07:51:51;;;;;;;25.13;6.88;;;13.40;99.90;;;;;;5053273;28;20095;-72
2023/05/19 07:54:17;;;;;;;29.40;7.25;;;13.50;99.90;;;;;;5053509;28;20103;-72
2023/05/19 07:56:43;;;;;;;28.17;7.30;;;13.60;99.90;;;;;;5052078;28;20458;-72
2023/05/19 07:59:09;;;;;;;25.80;7.07;;;13.70;99.90;;;;;;5052674;28;20021;-71
2023/05/19 08:01:34;;;;;;;21.92;7.10;;;13.70;99.90;;;;;;5053344;28;20052;-72
2023/05/19 08:04:01;;;;;;;27.02;7.78;;;13.80;99.90;;;;;;5053291;28;20382;-72
2023/05/19 08:06:28;;;;;;;30.10;7.50;;;13.80;99.90;;;;;;5053209;28;20033;-72
2023/05/19 08:08:54;;;;;;;28.45;7.20;;;13.90;99.90;;;;;;5053138;28;20044;-72
2023/05/19 08:11:21;;;;;;;25.23;7.50;;;13.90;99.90;;;;;;5051953;28;20102;-72
2023/05/19 08:13:48;;;;;;;28.27;7.03;;;13.90;99.90;;;;;;5053383;28;20139;-74
2023/05/19 08:16:14;;;;;;;24.13;6.57;;;14.00;99.90;;;;;;5053099;28;20512;-71
2023/05/19 08:18:40;;;;;;;23.60;6.70;;;14.00;99.90;;;;;;5053344;28;20029;-72
2023/05/19 08:21:06;;;;;;;25.90;6.70;;;14.10;99.90;;;;;;5052772;28;20029;-71
2023/05/19 08:23:32;;;;;;;21.45;6.53;;;14.20;99.90;;;;;;5053186;28;20379;-71
2023/05/19 08:25:58;;;;;;;22.33;6.70;;;14.20;99.90;;;;;;5052317;28;20124;-72
2023/05/19 08:28:24;;;;;;;29.95;7.07;;;14.20;99.90;;;;;;5053505;28;20028;-72
2023/05/19 08:30:51;;;;;;;30.52;6.80;;;14.20;99.90;;;;;;5052933;28;20446;-76
2023/05/19 08:33:19;;;;;;;24.90;6.63;;;14.10;99.90;;;;;;5053392;28;20167;-74
2023/05/19 08:35:45;;;;;;;23.73;6.57;;;14.20;99.90;;;;;;5053000;28;20121;-73
2023/05/19 08:38:10;;;;;;;29.77;6.60;;;14.20;99.90;;;;;;5051424;28;20359;-71
2023/05/19 08:40:40;;;;;;;25.42;6.78;;;14.20;99.90;;;;;;5053137;28;20439;-72
2023/05/19 08:43:06;;;;;;;28.75;6.88;;;14.20;99.90;;;;;;5052890;28;20024;-73
2023/05/19 08:45:33;;;;;;;29.65;6.45;;;14.20;99.90;;;;;;5053210;28;20143;-72
2023/05/19 08:47:59;;;;;;;30.42;7.60;;;14.20;99.90;;;;;;5053025;28;20351;-72
2023/05/19 08:50:38;;;;;;;24.38;6.40;;;14.20;99.90;;;;;;5053315;28;20098;-72
2023/05/19 08:53:08;;;;;;;23.77;6.15;;;14.20;99.90;;;;;;5052633;28;20044;-72
2023/05/19 08:55:52;;;;;;;21.55;6.68;;;14.20;99.90;;;;;;5052214;28;20476;-72
2023/05/19 08:58:19;;;;;;;24.92;6.60;;;14.30;99.90;;;;;;5052485;28;20131;-72
2023/05/19 09:00:46;;;;;;;30.20;7.30;;;14.30;99.90;;;;;;5051787;28;20551;-71
2023/05/19 09:03:14;;;;;;;24.52;6.72;;;14.20;99.90;;;;;;5051613;28;20112;-71
2023/05/19 09:05:40;;;;;;;20.73;6.45;;;14.20;99.90;;;;;;5051692;28;20068;-71
2023/05/19 09:08:07;;;;;;;27.05;7.07;;;14.20;99.90;;;;;;5051464;28;20025;-71
2023/05/19 09:10:32;;;;;;;24.92;6.80;;;14.30;99.90;;;;;;5051970;28;20029;-72
2023/05/19 09:12:58;;;;;;;24.02;6.95;;;14.30;99.90;;;;;;5051670;28;20331;-72
2023/05/19 09:15:29;;;;;;;26.63;6.60;;;14.30;99.90;;;;;;5051625;28;20044;-72
2023/05/19 09:18:08;;;;;;;23.95;6.88;;;14.40;99.90;;;;;;5051471;28;20029;-73
2023/05/19 09:20:42;;;;;;;23.52;6.55;;;14.40;99.90;;;;;;5051885;28;20029;-72
2023/05/19 09:23:13;;;;;;;20.85;6.13;;;14.50;99.90;;;;;;5051613;28;20052;-73
2023/05/19 09:25:46;;;;;;;26.67;6.28;;;14.40;99.90;;;;;;5050339;28;20045;-72
2023/05/19 09:28:11;;;;;;;22.08;6.15;;;14.60;99.90;;;;;;5051567;28;20024;-72
2023/05/19 09:30:38;;;;;;;27.00;6.82;;;14.60;99.90;;;;;;5051720;28;20033;-72
2023/05/19 09:33:08;;;;;;;20.00;6.03;;;14.70;99.90;;;;;;5051789;28;20119;-73
2023/05/19 09:35:35;;;;;;;19.88;6.70;;;14.70;99.90;;;;;;5052424;28;20025;-72
2023/05/19 09:38:00;;;;;;;23.98;6.15;;;14.80;99.90;;;;;;5051740;28;20091;-74
2023/05/19 09:40:31;;;;;;;29.73;6.25;;;14.80;99.90;;;;;;5052037;28;20447;-73
2023/05/19 09:42:56;;;;;;;23.50;7.07;;;14.80;99.90;;;;;;5051355;28;20037;-72
2023/05/19 09:45:26;;;;;;;25.05;6.95;;;14.80;99.90;;;;;;5051927;28;20371;-71
2023/05/19 09:47:52;;;;;;;23.05;6.05;;;14.90;99.90;;;;;;5050073;28;20390;-74
2023/05/19 09:50:18;;;;;;;22.33;6.07;;;15.00;99.90;;;;;;5051360;28;20033;-72
2023/05/19 09:52:44;;;;;;;25.65;6.63;;;15.10;99.90;;;;;;5051397;28;20025;-73
2023/05/19 09:55:12;;;;;;;22.48;6.78;;;15.20;99.90;;;;;;5050920;28;20033;-72
2023/05/19 09:57:38;;;;;;;24.80;6.50;;;15.30;99.90;;;;;;5049848;28;20389;-72
2023/05/19 10:00:16;;;;;;;26.50;6.57;;;15.20;99.90;;;;;;5051181;28;20040;-72
2023/05/19 10:02:43;;;;;;;27.10;6.90;;;15.20;99.90;;;;;;5051424;28;20033;-72
2023/05/19 10:05:19;;;;;;;20.48;6.30;;;15.20;99.90;;;;;;5050032;28;20470;-72
2023/05/19 10:07:47;;;;;;;24.13;7.00;;;15.30;99.90;;;;;;5051084;28;20112;-72
2023/05/19 10:10:14;;;;;;;23.42;7.22;;;15.40;99.90;;;;;;5050976;28;20028;-72
2023/05/19 10:12:40;;;;;;;21.25;6.78;;;15.30;99.90;;;;;;5051377;28;20113;-72
2023/05/19 10:15:11;;;;;;;22.67;6.50;;;15.50;99.90;;;;;;5050825;28;20430;-72
2023/05/19 10:17:40;;;;;;;23.23;6.25;;;15.70;99.90;;;;;;5051138;28;20041;-72
2023/05/19 10:20:14;;;;;;;22.13;6.13;;;15.80;99.90;;;;;;5050893;28;20052;-72
2023/05/19 10:22:41;;;;;;;20.33;6.53;;;15.80;99.90;;;;;;5033771;28;20029;-71
2023/05/19 10:25:09;;;;;;;24.30;6.85;;;16.00;99.90;;;;;;5048092;28;20095;-70
2023/05/19 10:27:43;;;;;;;20.25;6.28;;;16.20;99.90;;;;;;5050439;28;20098;-71
2023/05/19 10:30:15;;;;;;;22.50;6.68;;;16.20;99.90;;;;;;5048953;28;20164;-71
2023/05/19 10:32:43;;;;;;;17.80;6.22;;;16.10;99.90;;;;;;5051000;28;20032;-72
2023/05/19 10:35:21;;;;;;;20.38;6.00;;;16.10;99.90;;;;;;5050167;28;20474;-73
2023/05/19 10:37:57;;;;;;;24.75;6.90;;;16.10;99.90;;;;;;5050860;28;20036;-72
2023/05/19 10:40:27;;;;;;;19.42;6.57;;;16.00;99.90;;;;;;5051132;28;20039;-72
2023/05/19 10:43:07;;;;;;;15.80;5.82;;;16.00;99.90;;;;;;5050806;28;20397;-72
2023/05/19 10:45:46;;;;;;;19.63;6.72;;;16.00;99.90;;;;;;5050288;28;20104;-72
2023/05/19 10:48:15;;;;;;;20.00;5.80;;;16.00;99.90;;;;;;5050002;28;20091;-72
2023/05/19 10:50:46;;;;;;;16.50;5.95;;;16.10;99.90;;;;;;5050752;28;20027;-72
2023/05/19 10:53:17;;;;;;;20.20;6.15;;;16.00;99.90;;;;;;5050129;28;20103;-72
2023/05/19 10:56:01;;;;;;;25.52;6.43;;;16.00;99.90;;;;;;5050581;28;20025;-72
2023/05/19 10:58:57;;;;;;;22.65;5.82;;;16.00;99.90;;;;;;5050622;28;20199;-72
2023/05/19 11:01:36;;;;;;;22.83;6.10;;;16.10;99.90;;;;;;5049798;28;20451;-72
2023/05/19 11:04:12;;;;;;;16.23;5.97;;;16.30;99.90;;;;;;5049732;28;20425;-72
2023/05/19 11:06:39;;;;;;;20.48;5.78;;;16.30;99.90;;;;;;5050371;28;20076;-72
2023/05/19 11:09:10;;;;;;;22.95;5.97;;;16.40;99.90;;;;;;5050167;28;20025;-72
2023/05/19 11:11:47;;;;;;;18.85;6.20;;;16.60;99.90;;;;;;5050477;28;20194;-72
2023/05/19 11:14:18;;;;;;;16.75;6.03;;;16.60;99.90;;;;;;5049656;28;20117;-73
2023/05/19 11:16:47;;;;;;;16.55;5.53;;;16.60;99.90;;;;;;5050018;28;20443;-73
2023/05/19 11:19:41;;;;;;;18.35;6.47;;;16.60;99.90;;;;;;5049713;28;20108;-72
2023/05/19 11:22:08;;;;;;;18.42;5.57;;;16.60;99.90;;;;;;5049000;28;20035;-73
2023/05/19 11:24:38;;;;;;;22.50;6.20;;;16.60;99.90;;;;;;5049991;28;20139;-72
2023/05/19 11:27:31;;;;;;;20.33;5.80;;;16.50;99.90;;;;;;5047865;28;20049;-73
2023/05/19 11:30:17;;;;;;;18.95;5.03;;;16.50;99.90;;;;;;5050000;28;20029;-73
2023/05/19 11:32:46;;;;;;;13.65;4.97;;;16.50;99.90;;;;;;5050154;28;20040;-73
2023/05/19 11:35:14;;;;;;;15.48;5.47;;;16.50;99.90;;;;;;5049337;28;20030;-72
2023/05/19 11:37:41;;;;;;;19.40;5.35;;;16.40;99.90;;;;;;5050055;28;20025;-72
2023/05/19 11:40:08;;;;;;;19.38;5.07;;;16.30;99.90;;;;;;5049188;28;20033;-72
2023/05/19 11:42:35;;;;;;;17.48;5.75;;;16.10;99.90;;;;;;5049797;28;20025;-73
2023/05/19 11:45:02;;;;;;;18.88;5.63;;;16.10;99.90;;;;;;5049426;28;20116;-74
2023/05/19 11:47:29;;;;;;;21.35;5.82;;;16.20;99.90;;;;;;5050084;28;20371;-73
2023/05/19 11:49:55;;;;;;;12.95;5.70;;;16.20;99.90;;;;;;5050117;28;20102;-73
2023/05/19 11:52:26;;;;;;;14.95;5.20;;;16.20;99.90;;;;;;5049259;28;20458;-73
2023/05/19 11:54:52;;;;;;;21.33;5.47;;;16.20;99.90;;;;;;5049803;28;20051;-73
2023/05/19 11:57:18;;;;;;;16.13;5.30;;;16.20;99.90;;;;;;5049402;28;20036;-73
2023/05/19 11:59:46;;;;;;;15.90;5.20;;;16.20;99.90;;;;;;5049477;28;20029;-73
2023/05/19 12:02:19;;;;;;;14.68;5.35;;;16.10;99.90;;;;;;5049299;28;20029;-73
2023/05/19 12:04:49;;;;;;;18.88;5.28;;;16.20;99.90;;;;;;5049916;28;20040;-72
2023/05/19 12:07:17;;;;;;;18.30;5.65;;;16.10;99.90;;;;;;5048955;28;20041;-73
2023/05/19 12:09:46;;;;;;;11.35;4.68;;;16.10;99.90;;;;;;5049769;28;20036;-73
2023/05/19 12:12:17;;;;;;;12.15;5.10;;;16.20;99.90;;;;;;5049325;28;20021;-73
2023/05/19 12:14:44;;;;;;;13.88;4.95;;;16.30;99.90;;;;;;5048240;28;20308;-72
2023/05/19 12:17:15;;;;;;;19.08;5.43;;;16.40;99.90;;;;;;5049397;28;20040;-73
2023/05/19 12:19:43;;;;;;;18.38;5.25;;;16.50;99.90;;;;;;5049837;28;20033;-73
2023/05/19 12:22:09;;;;;;;18.02;6.28;;;16.60;99.90;;;;;;5049683;28;20231;-73
2023/05/19 12:24:36;;;;;;;15.10;4.97;;;16.80;99.90;;;;;;5049610;28;20037;-73
2023/05/19 12:27:06;;;;;;;13.95;4.93;;;17.00;99.90;;;;;;5049359;28;20044;-76
2023/05/19 12:29:31;;;;;;;16.73;5.85;;;17.10;99.90;;;;;;5051339;28;20104;-73
2023/05/19 12:31:57;;;;;;;13.93;5.30;;;17.10;99.90;;;;;;5052964;28;20537;-73
2023/05/19 12:34:23;;;;;;;16.83;5.13;;;17.20;99.90;;;;;;5052706;28;20164;-73
2023/05/19 12:36:49;;;;;;;17.65;4.95;;;17.20;99.90;;;;;;5053293;28;20029;-73
2023/05/19 12:39:15;;;;;;;17.08;5.47;;;17.20;99.90;;;;;;5051369;28;20033;-73
2023/05/19 12:41:44;;;;;;;19.00;5.72;;;17.20;99.90;;;;;;5053189;28;20033;-73
2023/05/19 12:44:16;;;;;;;13.60;5.25;;;17.20;99.90;;;;;;5052551;28;20090;-73